createdAt,value
2022-09-14T00:01:30.164Z,95185.91
2022-09-14T00:03:59.794Z,95169.66
2022-09-14T00:06:27.981Z,95159.13
2022-09-14T00:08:58.051Z,95149.84
2022-09-14T00:11:27.548Z,95151.09
2022-09-14T00:13:56.086Z,95139.66
2022-09-14T00:16:34.745Z,95141.19
2022-09-14T00:19:06.142Z,95131.94
2022-09-14T00:21:35.527Z,95119.09
2022-09-14T00:24:03.333Z,95116.47
2022-09-14T00:26:30.300Z,95112.44
2022-09-14T00:28:59.810Z,95099.41
2022-09-14T00:31:27.014Z,95090.81
2022-09-14T00:33:54.108Z,95083.69
2022-09-14T00:36:24.970Z,95084.56
2022-09-14T00:38:53.144Z,95085.03
2022-09-14T00:41:22.939Z,95070.41
2022-09-14T00:44:01.890Z,95067.94
2022-09-14T00:46:31.261Z,95067.00
2022-09-14T00:49:00.116Z,95072.88
2022-09-14T00:51:31.709Z,95081.81
2022-09-14T00:54:01.117Z,95080.91
2022-09-14T00:56:28.318Z,95076.88
2022-09-14T00:58:58.447Z,95080.31
2022-09-14T01:01:26.438Z,95095.13
2022-09-14T01:03:53.590Z,95086.19
2022-09-14T01:06:44.449Z,95088.28
2022-09-14T01:09:38.922Z,95084.31
2022-09-14T01:12:29.758Z,95089.56
2022-09-14T01:15:14.800Z,95091.56
2022-09-14T01:17:58.707Z,95085.41
2022-09-14T01:20:40.010Z,95077.19
2022-09-14T01:23:35.608Z,95077.47
2022-09-14T01:26:21.321Z,95082.47
2022-09-14T01:29:01.286Z,95096.16
2022-09-14T01:31:34.979Z,95096.84
2022-09-14T01:34:07.892Z,95097.94
2022-09-14T01:36:38.374Z,95104.56
2022-09-14T01:39:07.233Z,95108.31
2022-09-14T01:41:35.312Z,95121.34
2022-09-14T01:44:26.274Z,95142.25
2022-09-14T01:46:57.008Z,95137.28
2022-09-14T01:49:32.169Z,95139.44
2022-09-14T01:52:09.059Z,95121.94
2022-09-14T01:54:48.295Z,95103.47
2022-09-14T01:57:27.042Z,95110.53
2022-09-14T02:00:01.768Z,95105.25
2022-09-14T02:02:40.177Z,95096.56
2022-09-14T02:05:23.760Z,95107.38
2022-09-14T02:07:50.917Z,95104.81
2022-09-14T02:10:18.233Z,95090.13
2022-09-14T02:12:45.847Z,95083.84
2022-09-14T02:15:14.592Z,95082.47
2022-09-14T02:17:42.532Z,95076.78
2022-09-14T02:20:34.198Z,95072.97
2022-09-14T02:23:01.319Z,95068.03
2022-09-14T02:25:28.410Z,95061.41
2022-09-14T02:27:55.559Z,95066.03
2022-09-14T02:30:22.910Z,95066.03
2022-09-14T02:33:13.245Z,95076.44
2022-09-14T02:35:55.637Z,95078.25
2022-09-14T02:38:40.565Z,95070.06
2022-09-14T02:41:17.701Z,95065.44
2022-09-14T02:43:54.753Z,95066.94
2022-09-14T02:46:42.793Z,95054.56
2022-09-14T02:49:28.233Z,95045.25
2022-09-14T02:52:20.001Z,95048.38
2022-09-14T02:54:57.132Z,95041.28
2022-09-14T02:57:24.557Z,95060.41
2022-09-14T02:59:54.155Z,95083.09
2022-09-14T03:02:22.088Z,95100.59
2022-09-14T03:04:49.308Z,95129.53
2022-09-14T03:07:16.398Z,95124.00
2022-09-14T03:09:43.467Z,95084.63
2022-09-14T03:12:10.520Z,95048.56
2022-09-14T03:14:37.583Z,95050.25
2022-09-14T03:17:04.605Z,95056.19
2022-09-14T03:19:31.647Z,95059.22
2022-09-14T03:21:58.710Z,95057.88
2022-09-14T03:24:25.754Z,95063.50
2022-09-14T03:26:52.852Z,95045.50
2022-09-14T03:29:19.968Z,95047.91
2022-09-14T03:31:47.012Z,95053.53
2022-09-14T03:34:14.341Z,95040.66
2022-09-14T03:36:41.415Z,95052.69
2022-09-14T03:39:09.137Z,95055.09
2022-09-14T03:41:36.175Z,95065.19
2022-09-14T03:44:03.265Z,95074.19
2022-09-14T03:46:30.338Z,95067.53
2022-09-14T03:48:57.471Z,95054.75
2022-09-14T03:51:24.567Z,95055.13
2022-09-14T03:53:52.050Z,95054.56
2022-09-14T03:56:21.533Z,95050.56
2022-09-14T03:58:49.689Z,95045.00
2022-09-14T04:01:19.360Z,95040.06
2022-09-14T04:03:47.593Z,95043.91
2022-09-14T04:06:16.023Z,95033.44
2022-09-14T04:08:45.003Z,95039.75
2022-09-14T04:11:14.140Z,95032.19
2022-09-14T04:13:41.780Z,95020.00
2022-09-14T04:16:09.172Z,95026.03
2022-09-14T04:18:36.484Z,95028.81
2022-09-14T04:21:08.570Z,95029.53
2022-09-14T04:23:56.639Z,95033.53
2022-09-14T04:26:27.097Z,95029.19
2022-09-14T04:28:56.496Z,95029.84
2022-09-14T04:31:23.668Z,95021.22
2022-09-14T04:33:51.343Z,95014.13
2022-09-14T04:36:21.291Z,95013.19
2022-09-14T04:38:48.665Z,95001.13
2022-09-14T04:41:18.217Z,94997.75
2022-09-14T04:43:46.580Z,94996.84
2022-09-14T04:46:16.459Z,95019.56
2022-09-14T04:48:44.369Z,95031.78
2022-09-14T04:51:14.310Z,95027.00
2022-09-14T04:53:41.444Z,95024.78
2022-09-14T04:56:10.448Z,95015.22
2022-09-14T04:58:41.305Z,95023.00
2022-09-14T05:01:11.755Z,95018.31
2022-09-14T05:03:39.587Z,95019.59
2022-09-14T05:06:10.706Z,95025.19
2022-09-14T05:08:38.674Z,95022.00
2022-09-14T05:11:12.162Z,95022.34
2022-09-14T05:13:39.253Z,95022.81
2022-09-14T05:16:07.800Z,95023.00
2022-09-14T05:18:35.301Z,95006.34
2022-09-14T05:21:08.684Z,95001.41
2022-09-14T05:23:36.645Z,95000.19
2022-09-14T05:26:05.057Z,94998.03
2022-09-14T05:28:33.001Z,94995.91
2022-09-14T05:31:03.465Z,94998.97
2022-09-14T05:33:30.556Z,95004.34
2022-09-14T05:36:06.381Z,94999.44
2022-09-14T05:38:36.425Z,94998.97
2022-09-14T05:41:05.024Z,95008.16
2022-09-14T05:43:32.494Z,95005.72
2022-09-14T05:46:07.535Z,95007.22
2022-09-14T05:48:36.362Z,95016.38
2022-09-14T05:51:07.261Z,95025.47
2022-09-14T05:53:34.617Z,95020.09
2022-09-14T05:56:09.955Z,95004.44
2022-09-14T05:58:38.234Z,95006.03
2022-09-14T06:01:16.331Z,95006.03
2022-09-14T06:03:44.272Z,95014.53
2022-09-14T06:06:13.186Z,95014.00
2022-09-14T06:08:40.776Z,95021.56
2022-09-14T06:11:12.200Z,95029.56
2022-09-14T06:13:39.539Z,95034.22
2022-09-14T06:16:12.549Z,95034.78
2022-09-14T06:18:41.385Z,95036.59
2022-09-14T06:21:10.512Z,95031.88
2022-09-14T06:23:38.237Z,95033.44
2022-09-14T06:26:05.883Z,95026.84
2022-09-14T06:28:34.396Z,95023.78
2022-09-14T06:31:07.478Z,95009.47
2022-09-14T06:33:35.286Z,95022.97
2022-09-14T06:36:09.597Z,95021.47
2022-09-14T06:38:36.701Z,95012.72
2022-09-14T06:41:06.851Z,95022.13
2022-09-14T06:43:37.177Z,95021.22
2022-09-14T06:46:12.301Z,95006.09
2022-09-14T06:48:45.667Z,95006.41
2022-09-14T06:51:15.796Z,95008.91
2022-09-14T06:53:43.590Z,95021.22
2022-09-14T06:56:11.163Z,95013.06
2022-09-14T06:58:38.403Z,94998.25
2022-09-14T07:01:08.719Z,95009.84
2022-09-14T07:03:37.353Z,95024.69
2022-09-14T07:06:06.475Z,95033.78
2022-09-14T07:08:34.622Z,95024.97
2022-09-14T07:11:03.052Z,95029.69
2022-09-14T07:13:31.802Z,95016.03
2022-09-14T07:15:59.217Z,95025.34
2022-09-14T07:18:32.744Z,95030.72
2022-09-14T07:21:07.037Z,95035.31
2022-09-14T07:23:36.541Z,95032.16
2022-09-14T07:26:07.645Z,95024.88
2022-09-14T07:28:35.894Z,95031.88
2022-09-14T07:31:04.081Z,95053.88
2022-09-14T07:33:31.261Z,95064.50
2022-09-14T07:36:09.661Z,95074.72
2022-09-14T07:38:51.663Z,95072.88
2022-09-14T07:41:24.816Z,95064.25
2022-09-14T07:43:54.119Z,95073.47
2022-09-14T07:46:21.388Z,95063.13
2022-09-14T07:48:49.156Z,95056.44
2022-09-14T07:51:16.532Z,95059.50
2022-09-14T07:53:43.597Z,95054.22
2022-09-14T07:56:12.260Z,95062.56
2022-09-14T07:58:39.706Z,95073.13
2022-09-14T08:01:12.547Z,95067.91
2022-09-14T08:03:42.013Z,95071.88
2022-09-14T08:06:10.793Z,95072.47
2022-09-14T08:08:40.257Z,95068.31
2022-09-14T08:11:15.845Z,95058.53
2022-09-14T08:13:45.343Z,95057.44
2022-09-14T08:16:13.282Z,95065.94
2022-09-14T08:18:40.502Z,95065.78
2022-09-14T08:21:13.456Z,95052.81
2022-09-14T08:23:41.593Z,95051.78
2022-09-14T08:26:13.605Z,95046.13
2022-09-14T08:28:41.686Z,95047.19
2022-09-14T08:31:11.683Z,95045.41
2022-09-14T08:33:42.434Z,95033.31
2022-09-14T08:36:11.400Z,95028.94
2022-09-14T08:38:38.741Z,95030.69
2022-09-14T08:41:28.662Z,95049.63
2022-09-14T08:44:06.319Z,95049.03
2022-09-14T08:46:44.208Z,95045.06
2022-09-14T08:49:19.411Z,95046.44
2022-09-14T08:51:46.549Z,95051.78
2022-09-14T08:54:13.643Z,95039.31
2022-09-14T08:56:45.297Z,95038.94
2022-09-14T08:59:38.367Z,95043.09
2022-09-14T09:02:20.503Z,95062.06
2022-09-14T09:05:00.094Z,95073.31
2022-09-14T09:07:34.947Z,95092.13
2022-09-14T09:10:05.485Z,95089.47
2022-09-14T09:12:47.666Z,95078.91
2022-09-14T09:15:21.105Z,95079.69
2022-09-14T09:17:53.529Z,95083.97
2022-09-14T09:20:24.096Z,95059.41
2022-09-14T09:23:11.375Z,95058.88
2022-09-14T09:25:47.469Z,95058.09
2022-09-14T09:28:16.407Z,95061.28
2022-09-14T09:30:45.012Z,95067.13
2022-09-14T09:33:16.870Z,95057.50
2022-09-14T09:36:07.025Z,95052.09
2022-09-14T09:38:34.851Z,95058.63
2022-09-14T09:41:12.889Z,95047.25
2022-09-14T09:43:59.198Z,95034.34
2022-09-14T09:46:29.939Z,95032.50
2022-09-14T09:48:57.191Z,95027.63
2022-09-14T09:51:24.467Z,95022.66
2022-09-14T09:53:52.823Z,95004.72
2022-09-14T09:56:26.296Z,95003.38
2022-09-14T09:58:53.711Z,94998.78
2022-09-14T10:01:31.167Z,94997.22
2022-09-14T10:04:04.369Z,94994.09
2022-09-14T10:06:32.970Z,94990.16
2022-09-14T10:09:00.280Z,94980.38
2022-09-14T10:11:38.261Z,94980.13
2022-09-14T10:14:19.668Z,94975.06
2022-09-14T10:16:47.525Z,94968.63
2022-09-14T10:19:20.637Z,94977.16
2022-09-14T10:22:17.491Z,94973.38
2022-09-14T10:24:57.331Z,94977.44
2022-09-14T10:27:39.718Z,94965.03
2022-09-14T10:30:14.008Z,94954.75
2022-09-14T10:32:46.454Z,94954.06
2022-09-14T10:35:15.539Z,94952.41
2022-09-14T10:38:15.889Z,94953.75
2022-09-14T10:40:48.441Z,94946.63
2022-09-14T10:43:33.309Z,94949.88
2022-09-14T10:46:04.524Z,94955.41
2022-09-14T10:49:03.632Z,94946.56
2022-09-14T10:51:53.650Z,94947.06
2022-09-14T10:54:34.316Z,94945.31
2022-09-14T10:57:05.198Z,94947.41
2022-09-14T10:59:36.405Z,94940.22
2022-09-14T11:02:22.604Z,94942.88
2022-09-14T11:05:44.097Z,94940.59
2022-09-14T11:08:22.972Z,94926.72
2022-09-14T11:11:22.751Z,94931.00
2022-09-14T11:14:12.636Z,94931.28
2022-09-14T11:17:07.067Z,94924.28
2022-09-14T11:19:52.879Z,94926.94
2022-09-14T11:22:38.215Z,94933.47
2022-09-14T11:25:14.220Z,94934.41
2022-09-14T11:27:48.867Z,94940.72
2022-09-14T11:30:19.736Z,94938.84
2022-09-14T11:33:16.293Z,94931.38
2022-09-14T11:35:51.826Z,94929.31
2022-09-14T11:38:21.595Z,94921.81
2022-09-14T11:41:13.457Z,94918.69
2022-09-14T11:43:55.942Z,94924.44
2022-09-14T11:46:50.686Z,94923.44
2022-09-14T11:49:20.583Z,94908.50
2022-09-14T11:52:02.388Z,94914.97
2022-09-14T11:54:29.457Z,94907.16
2022-09-14T11:57:02.979Z,94914.78
2022-09-14T11:59:42.209Z,94918.69
2022-09-14T12:02:27.850Z,94919.22
2022-09-14T12:05:07.365Z,94929.38
2022-09-14T12:07:42.215Z,94935.16
2022-09-14T12:10:15.344Z,94930.66
2022-09-14T12:12:48.977Z,94940.47
2022-09-14T12:15:31.526Z,94939.53
2022-09-14T12:18:07.742Z,94925.97
2022-09-14T12:20:43.385Z,94937.69
2022-09-14T12:23:29.090Z,94934.63
2022-09-14T12:26:30.269Z,94924.16
2022-09-14T12:29:04.331Z,94925.94
2022-09-14T12:31:59.488Z,94907.53
2022-09-14T12:34:31.694Z,94905.84
2022-09-14T12:37:02.345Z,94908.69
2022-09-14T12:39:34.681Z,94910.66
2022-09-14T12:42:25.257Z,94899.53
2022-09-14T12:44:52.905Z,94880.84
2022-09-14T12:47:25.749Z,94876.34
2022-09-14T12:49:57.821Z,94859.56
2022-09-14T12:52:39.079Z,94855.34
2022-09-14T12:55:34.594Z,94871.34
2022-09-14T12:58:19.916Z,94880.00
2022-09-14T13:01:14.890Z,94898.72
2022-09-14T13:03:54.253Z,94911.31
2022-09-14T13:06:23.455Z,94921.53
2022-09-14T13:08:53.629Z,94927.72
2022-09-14T13:11:24.505Z,94910.00
2022-09-14T13:13:52.057Z,94911.13
2022-09-14T13:16:29.687Z,94915.94
2022-09-14T13:19:03.203Z,94916.13
2022-09-14T13:21:30.378Z,94914.97
2022-09-14T13:23:57.729Z,94908.25
2022-09-14T13:26:30.109Z,94913.38
2022-09-14T13:29:00.301Z,94899.78
2022-09-14T13:31:33.394Z,94904.88
2022-09-14T13:34:02.814Z,94913.13
2022-09-14T13:36:33.770Z,94901.53
2022-09-14T13:39:03.113Z,94896.38
2022-09-14T13:41:31.827Z,94890.16
2022-09-14T13:43:59.746Z,94876.53
2022-09-14T13:46:27.887Z,94894.69
2022-09-14T13:48:55.880Z,94894.00
2022-09-14T13:51:28.283Z,94886.09
2022-09-14T13:53:57.637Z,94889.31
2022-09-14T13:56:33.613Z,94887.72
2022-09-14T13:59:12.618Z,94895.25
2022-09-14T14:01:42.545Z,94892.75
2022-09-14T14:04:39.297Z,94873.88
2022-09-14T14:07:31.545Z,94869.69
2022-09-14T14:09:59.778Z,94838.41
2022-09-14T14:12:36.880Z,94850.88
2022-09-14T14:15:25.489Z,94843.31
2022-09-14T14:17:53.557Z,94831.41
2022-09-14T14:20:26.793Z,94816.25
2022-09-14T14:23:13.261Z,94804.94
2022-09-14T14:25:46.254Z,94785.63
2022-09-14T14:28:15.984Z,94801.41
2022-09-14T14:30:43.453Z,94821.59
2022-09-14T14:33:18.580Z,94822.94
2022-09-14T14:35:51.631Z,94830.34
2022-09-14T14:38:18.831Z,94830.41
2022-09-14T14:40:46.798Z,94836.13
2022-09-14T14:45:45.695Z,94836.84
2022-09-14T14:48:13.410Z,94830.13
2022-09-14T14:50:40.479Z,94817.19
2022-09-14T14:53:07.711Z,94817.28
2022-09-14T14:55:35.858Z,94826.81
2022-09-14T14:58:07.049Z,94819.88
2022-09-14T15:00:35.813Z,94811.91
2022-09-14T15:03:03.053Z,94809.13
2022-09-14T15:05:31.021Z,94807.63
2022-09-14T15:07:58.244Z,94799.84
2022-09-14T15:10:27.566Z,94802.84
2022-09-14T15:12:54.823Z,94787.53
2022-09-14T15:15:24.831Z,94790.25
2022-09-14T15:17:53.112Z,94778.78
2022-09-14T15:20:20.841Z,94774.44
2022-09-14T15:22:48.734Z,94770.81
2022-09-14T15:25:17.770Z,94753.91
2022-09-14T15:27:45.259Z,94748.03
2022-09-14T15:30:13.440Z,94759.16
2022-09-14T15:32:41.195Z,94791.31
2022-09-14T15:35:12.406Z,94804.63
2022-09-14T15:37:39.662Z,94851.66
2022-09-14T15:40:07.254Z,94894.78
2022-09-14T15:42:34.365Z,94945.03
2022-09-14T15:45:01.442Z,95010.09
2022-09-14T15:47:30.730Z,66868.56
2022-09-14T15:50:01.228Z,66868.56
2022-09-14T15:52:28.347Z,66868.56
2022-09-14T15:54:55.482Z,66868.56
2022-09-14T15:57:22.528Z,66868.56
2022-09-14T15:59:49.608Z,66868.56
2022-09-14T16:02:20.019Z,66868.56
2022-09-14T16:04:47.151Z,66868.56
2022-09-14T16:07:14.308Z,66868.56
2022-09-14T16:09:42.199Z,66868.56
2022-09-14T16:12:10.872Z,66868.56
2022-09-14T16:14:38.187Z,66868.56
2022-09-14T16:17:05.762Z,66868.56
2022-09-14T16:19:32.943Z,66868.56
2022-09-14T16:22:01.356Z,66868.56
2022-09-14T16:24:28.871Z,66868.56
2022-09-14T16:26:57.746Z,66868.56
2022-09-14T16:29:25.422Z,66868.56
2022-09-14T16:31:52.977Z,66868.56
2022-09-14T16:34:26.646Z,66868.56
2022-09-14T16:36:54.265Z,66868.56
2022-09-14T16:39:24.184Z,66868.56
2022-09-14T16:41:52.116Z,66868.56
2022-09-14T16:44:21.903Z,66868.56
2022-09-14T16:46:49.554Z,66868.56
2022-09-14T16:49:17.647Z,66868.56
2022-09-14T16:51:45.201Z,66868.56
2022-09-14T16:54:17.593Z,66868.56
2022-09-14T16:56:45.233Z,66868.56
2022-09-14T16:59:12.966Z,66868.56
2022-09-14T17:01:42.890Z,66868.56
2022-09-14T17:04:13.784Z,66868.56
2022-09-14T17:06:44.129Z,66868.56
2022-09-14T17:09:14.491Z,66868.56
2022-09-14T17:11:41.903Z,66868.56
2022-09-14T17:14:16.500Z,66868.56
2022-09-14T17:16:43.645Z,66868.56
2022-09-14T17:19:11.748Z,66868.56
2022-09-14T17:21:41.575Z,66868.56
2022-09-14T17:24:09.764Z,66868.56
2022-09-14T17:26:37.509Z,66868.56
2022-09-14T17:29:06.586Z,66868.56
2022-09-14T17:31:37.828Z,66868.56
2022-09-14T17:34:07.006Z,66868.56
2022-09-14T17:36:34.505Z,66868.56
2022-09-14T17:39:05.064Z,66868.56
2022-09-14T17:41:37.256Z,66868.56
2022-09-14T17:44:06.070Z,66868.56
2022-09-14T17:46:33.719Z,66868.56
2022-09-14T17:49:03.977Z,66868.56
2022-09-14T17:51:32.489Z,66868.56
2022-09-14T17:54:01.103Z,66868.56
2022-09-14T17:56:29.047Z,66868.56
2022-09-14T17:59:05.493Z,66868.56
2022-09-14T18:01:33.614Z,66868.56
2022-09-14T18:04:04.324Z,66868.56
2022-09-14T18:06:34.587Z,66868.56
2022-09-14T18:09:06.934Z,66868.56
2022-09-14T18:11:35.016Z,66868.56
2022-09-14T18:14:02.707Z,66868.56
2022-09-14T18:16:29.875Z,66868.56
2022-09-14T18:18:57.621Z,66868.56
2022-09-14T18:21:26.319Z,66868.56
2022-09-14T18:23:54.662Z,66868.56
2022-09-14T18:26:23.229Z,66868.56
2022-09-14T18:28:53.292Z,66868.56
2022-09-14T18:31:20.522Z,66868.56
2022-09-14T18:33:53.391Z,66868.56
2022-09-14T18:36:21.675Z,66868.56
2022-09-14T18:38:49.596Z,66868.56
2022-09-14T18:41:17.597Z,66868.56
2022-09-14T18:43:46.991Z,66868.56
2022-09-14T18:46:17.352Z,66868.56
2022-09-14T18:48:44.639Z,66868.56
2022-09-14T18:51:13.353Z,66868.56
2022-09-14T18:53:41.006Z,66868.56
2022-09-14T18:56:11.615Z,66868.56
2022-09-14T18:58:41.543Z,66868.56
2022-09-14T19:01:10.532Z,66868.56
2022-09-14T19:03:39.412Z,66868.56
2022-09-14T19:06:09.030Z,66868.56
2022-09-14T19:08:36.757Z,66868.56
2022-09-14T19:11:09.478Z,66868.56
2022-09-14T19:13:37.316Z,66868.56
2022-09-14T19:16:08.703Z,66868.56
2022-09-14T19:18:36.439Z,66868.56
2022-09-14T19:21:07.120Z,66868.56
2022-09-14T19:23:36.354Z,66868.56
2022-09-14T19:26:06.096Z,66868.56
2022-09-14T19:28:33.844Z,66868.56
2022-09-14T19:31:06.160Z,66868.56
2022-09-14T19:33:33.459Z,66868.56
2022-09-14T19:36:14.859Z,66868.56
2022-09-14T19:38:42.431Z,66868.56
2022-09-14T19:41:09.847Z,66868.56
2022-09-14T19:43:37.035Z,66868.56
2022-09-14T19:46:09.923Z,66868.56
2022-09-14T19:48:37.593Z,66868.56
2022-09-14T19:51:07.486Z,66868.56
2022-09-14T19:53:36.282Z,66868.56
2022-09-14T19:56:06.475Z,66868.56
2022-09-14T19:58:39.478Z,66868.56
2022-09-14T20:01:07.613Z,66868.56
2022-09-14T20:03:36.726Z,66868.56
2022-09-14T20:06:10.257Z,66868.56
2022-09-14T20:08:37.895Z,66868.56
2022-09-14T20:11:10.072Z,66868.56
2022-09-14T20:13:38.268Z,66868.56
2022-09-14T20:16:12.472Z,66868.56
2022-09-14T20:18:43.724Z,66868.56
2022-09-14T20:21:12.699Z,66868.56
2022-09-14T20:23:57.997Z,66868.56
2022-09-14T20:26:29.192Z,66868.56
2022-09-14T20:28:59.919Z,66868.56
2022-09-14T20:31:28.494Z,66868.56
2022-09-14T20:33:56.668Z,66868.56
2022-09-14T20:36:28.610Z,66868.56
2022-09-14T20:38:57.737Z,66868.56
2022-09-14T20:41:30.937Z,66868.56
2022-09-14T20:43:58.067Z,66868.56
2022-09-14T20:46:28.221Z,66868.56
2022-09-14T20:48:55.520Z,66868.56
2022-09-14T20:51:24.982Z,66868.56
2022-09-14T20:53:52.052Z,66868.56
2022-09-14T20:56:21.871Z,66868.56
2022-09-14T20:58:52.447Z,66868.56
2022-09-14T21:01:21.230Z,66868.56
2022-09-14T21:03:50.155Z,66868.56
2022-09-14T21:06:20.497Z,66868.56
2022-09-14T21:08:47.862Z,66868.56
2022-09-14T21:11:17.462Z,66868.56
2022-09-14T21:13:45.069Z,66868.56
2022-09-14T21:16:26.206Z,66868.56
2022-09-14T21:19:07.789Z,66868.56
2022-09-14T21:21:35.034Z,66868.56
2022-09-14T21:24:02.894Z,66868.56
2022-09-14T21:26:33.810Z,66868.56
2022-09-14T21:29:05.372Z,66868.56
2022-09-14T21:31:34.659Z,66868.56
2022-09-14T21:34:03.449Z,66868.56
2022-09-14T21:36:36.505Z,66868.56
2022-09-14T21:39:08.389Z,66868.56
2022-09-14T21:41:37.215Z,66868.56
2022-09-14T21:44:05.096Z,66868.56
2022-09-14T21:46:32.563Z,66868.56
2022-09-14T21:49:00.095Z,66868.56
2022-09-14T21:51:30.676Z,66868.56
2022-09-14T21:54:00.224Z,66868.56
2022-09-14T21:56:29.897Z,66868.56
2022-09-14T21:59:00.012Z,66868.56
2022-09-14T22:01:28.316Z,66868.56
2022-09-14T22:03:56.879Z,66868.56
2022-09-14T22:06:28.053Z,66868.56
2022-09-14T22:08:57.426Z,66868.56
2022-09-14T22:11:25.876Z,66868.56
2022-09-14T22:14:02.303Z,66868.56
2022-09-14T22:16:32.965Z,66868.56
2022-09-14T22:19:03.938Z,66868.56
2022-09-14T22:21:33.275Z,66868.56
2022-09-14T22:24:01.448Z,66868.56
2022-09-14T22:26:31.274Z,66868.56
2022-09-14T22:28:59.245Z,66868.56
2022-09-14T22:31:28.621Z,66868.56
2022-09-14T22:33:56.316Z,66868.56
2022-09-14T22:36:23.773Z,66868.56
2022-09-14T22:38:51.058Z,66868.56
2022-09-14T22:41:22.069Z,66868.56
2022-09-14T22:43:49.644Z,66868.56
2022-09-14T22:46:17.230Z,66868.56
2022-09-14T22:48:45.304Z,66868.56
2022-09-14T22:51:15.031Z,66868.56
2022-09-14T22:53:42.559Z,66868.56
2022-09-14T22:56:31.248Z,66868.56
2022-09-14T22:58:59.145Z,66868.56
2022-09-14T23:01:32.957Z,66868.56
2022-09-14T23:04:03.535Z,66868.56
2022-09-14T23:06:34.183Z,66868.56
2022-09-14T23:09:01.671Z,66868.56
2022-09-14T23:11:29.332Z,66868.56
2022-09-14T23:13:58.726Z,66868.56
2022-09-14T23:16:26.911Z,66868.56
2022-09-14T23:18:57.037Z,66868.56
2022-09-14T23:21:24.959Z,66868.56
2022-09-14T23:23:56.984Z,66868.56
2022-09-14T23:26:24.819Z,66868.56
2022-09-14T23:29:03.255Z,66868.56
2022-09-14T23:31:32.061Z,66868.56
2022-09-14T23:34:00.606Z,66868.56
2022-09-14T23:36:28.288Z,66868.56
2022-09-14T23:38:56.012Z,66868.56
2022-09-14T23:41:25.366Z,66868.56
2022-09-14T23:43:52.564Z,66868.56
2022-09-14T23:46:20.281Z,66868.56
2022-09-14T23:48:47.415Z,66868.56
2022-09-14T23:51:15.087Z,66868.56
2022-09-14T23:53:43.050Z,66868.56
2022-09-14T23:56:10.874Z,66868.56
2022-09-14T23:58:38.255Z,66868.56
